sensor_id;sensor_type;location;lat;lon;timestamp;P1;durP1;ratioP1;P2;durP2;ratioP2
77984;SDS011;67177;47.240;-1.546;2023-02-15T00:01:21;11.53;;;5.20;;
77984;SDS011;67177;47.240;-1.546;2023-02-15T00:03:49;10.35;;;4.70;;
77984;SDS011;67177;47.240;-1.546;2023-02-15T00:06:15;11.95;;;6.05;;
77984;SDS011;67177;47.240;-1.546;2023-02-15T00:08:41;9.37;;;4.73;;
77984;SDS011;67177;47.240;-1.546;2023-02-15T00:11:08;8.75;;;4.68;;
77984;SDS011;67177;47.240;-1.546;2023-02-15T00:13:36;8.95;;;4.72;;
77984;SDS011;67177;47.240;-1.546;2023-02-15T00:16:04;9.07;;;4.53;;
77984;SDS011;67177;47.240;-1.546;2023-02-15T00:18:31;8.60;;;4.70;;
77984;SDS011;67177;47.240;-1.546;2023-02-15T00:20:57;8.85;;;4.45;;
77984;SDS011;67177;47.240;-1.546;2023-02-15T00:23:24;10.10;;;5.32;;
77984;SDS011;67177;47.240;-1.546;2023-02-15T00:25:51;9.57;;;5.03;;
77984;SDS011;67177;47.240;-1.546;2023-02-15T00:28:17;9.93;;;4.80;;
77984;SDS011;67177;47.240;-1.546;2023-02-15T00:30:43;10.30;;;5.40;;
77984;SDS011;67177;47.240;-1.546;2023-02-15T00:33:08;11.50;;;6.38;;
77984;SDS011;67177;47.240;-1.546;2023-02-15T00:35:34;9.83;;;5.20;;
77984;SDS011;67177;47.240;-1.546;2023-02-15T00:37:59;10.15;;;5.47;;
77984;SDS011;67177;47.240;-1.546;2023-02-15T00:40:25;11.63;;;6.23;;
77984;SDS011;67177;47.240;-1.546;2023-02-15T00:42:51;10.90;;;5.73;;
77984;SDS011;67177;47.240;-1.546;2023-02-15T00:45:16;10.70;;;5.88;;
77984;SDS011;67177;47.240;-1.546;2023-02-15T00:47:42;10.27;;;5.50;;
77984;SDS011;67177;47.240;-1.546;2023-02-15T00:50:07;9.57;;;5.35;;
77984;SDS011;67177;47.240;-1.546;2023-02-15T00:52:33;9.50;;;4.60;;
77984;SDS011;67177;47.240;-1.546;2023-02-15T00:54:59;9.10;;;5.07;;
77984;SDS011;67177;47.240;-1.546;2023-02-15T00:57:25;12.03;;;6.53;;
77984;SDS011;67177;47.240;-1.546;2023-02-15T00:59:50;11.65;;;6.25;;
77984;SDS011;67177;47.240;-1.546;2023-02-15T01:02:16;11.93;;;6.32;;
77984;SDS011;67177;47.240;-1.546;2023-02-15T01:04:42;11.27;;;5.90;;
77984;SDS011;67177;47.240;-1.546;2023-02-15T01:07:07;10.68;;;5.95;;
77984;SDS011;67177;47.240;-1.546;2023-02-15T01:09:33;11.70;;;6.13;;
77984;SDS011;67177;47.240;-1.546;2023-02-15T01:11:59;12.02;;;5.85;;
77984;SDS011;67177;47.240;-1.546;2023-02-15T01:14:24;13.03;;;6.93;;
77984;SDS011;67177;47.240;-1.546;2023-02-15T01:16:50;11.77;;;5.93;;
77984;SDS011;67177;47.240;-1.546;2023-02-15T01:19:15;12.63;;;7.15;;
77984;SDS011;67177;47.240;-1.546;2023-02-15T01:21:41;13.57;;;7.37;;
77984;SDS011;67177;47.240;-1.546;2023-02-15T01:24:11;15.23;;;7.63;;
77984;SDS011;67177;47.240;-1.546;2023-02-15T01:26:38;13.53;;;6.80;;
77984;SDS011;67177;47.240;-1.546;2023-02-15T01:29:03;13.98;;;8.10;;
77984;SDS011;67177;47.240;-1.546;2023-02-15T01:31:29;13.87;;;7.20;;
77984;SDS011;67177;47.240;-1.546;2023-02-15T01:33:55;13.52;;;7.18;;
77984;SDS011;67177;47.240;-1.546;2023-02-15T01:36:20;16.10;;;8.20;;
77984;SDS011;67177;47.240;-1.546;2023-02-15T01:38:46;14.40;;;8.27;;
77984;SDS011;67177;47.240;-1.546;2023-02-15T01:41:12;11.73;;;7.07;;
77984;SDS011;67177;47.240;-1.546;2023-02-15T01:43:55;13.65;;;7.45;;
77984;SDS011;67177;47.240;-1.546;2023-02-15T01:46:27;15.23;;;7.50;;
77984;SDS011;67177;47.240;-1.546;2023-02-15T01:49:12;12.80;;;6.80;;
77984;SDS011;67177;47.240;-1.546;2023-02-15T01:51:40;11.70;;;6.50;;
77984;SDS011;67177;47.240;-1.546;2023-02-15T01:54:15;12.37;;;7.20;;
77984;SDS011;67177;47.240;-1.546;2023-02-15T01:56:49;11.23;;;6.35;;
77984;SDS011;67177;47.240;-1.546;2023-02-15T01:59:16;11.75;;;6.15;;
77984;SDS011;67177;47.240;-1.546;2023-02-15T02:01:46;9.82;;;5.10;;
77984;SDS011;67177;47.240;-1.546;2023-02-15T02:04:19;11.43;;;5.70;;
77984;SDS011;67177;47.240;-1.546;2023-02-15T02:06:50;10.10;;;5.47;;
77984;SDS011;67177;47.240;-1.546;2023-02-15T02:09:17;10.25;;;5.60;;
77984;SDS011;67177;47.240;-1.546;2023-02-15T02:11:42;13.83;;;7.37;;
77984;SDS011;67177;47.240;-1.546;2023-02-15T02:14:11;12.90;;;7.05;;
77984;SDS011;67177;47.240;-1.546;2023-02-15T02:16:51;12.10;;;6.43;;
77984;SDS011;67177;47.240;-1.546;2023-02-15T02:35:30;11.80;;;5.95;;
77984;SDS011;67177;47.240;-1.546;2023-02-15T02:38:11;11.43;;;5.90;;
77984;SDS011;67177;47.240;-1.546;2023-02-15T02:40:52;10.98;;;5.80;;
77984;SDS011;67177;47.240;-1.546;2023-02-15T02:43:33;11.80;;;6.00;;
77984;SDS011;67177;47.240;-1.546;2023-02-15T02:46:26;10.68;;;5.40;;
77984;SDS011;67177;47.240;-1.546;2023-02-15T02:48:57;10.70;;;5.43;;
77984;SDS011;67177;47.240;-1.546;2023-02-15T02:51:23;11.10;;;5.70;;
77984;SDS011;67177;47.240;-1.546;2023-02-15T02:53:53;10.73;;;5.80;;
77984;SDS011;67177;47.240;-1.546;2023-02-15T02:56:29;10.15;;;5.47;;
77984;SDS011;67177;47.240;-1.546;2023-02-15T02:59:03;11.37;;;5.80;;
77984;SDS011;67177;47.240;-1.546;2023-02-15T03:01:50;9.88;;;5.22;;
77984;SDS011;67177;47.240;-1.546;2023-02-15T03:04:25;10.85;;;5.25;;
77984;SDS011;67177;47.240;-1.546;2023-02-15T03:09:48;9.70;;;5.20;;
77984;SDS011;67177;47.240;-1.546;2023-02-15T03:12:38;10.70;;;5.33;;
77984;SDS011;67177;47.240;-1.546;2023-02-15T03:17:33;11.27;;;5.68;;
77984;SDS011;67177;47.240;-1.546;2023-02-15T03:20:07;13.13;;;6.55;;
77984;SDS011;67177;47.240;-1.546;2023-02-15T03:22:38;11.35;;;5.90;;
77984;SDS011;67177;47.240;-1.546;2023-02-15T03:25:20;9.97;;;5.50;;
77984;SDS011;67177;47.240;-1.546;2023-02-15T03:27:51;10.07;;;5.32;;
77984;SDS011;67177;47.240;-1.546;2023-02-15T03:30:30;10.48;;;5.60;;
77984;SDS011;67177;47.240;-1.546;2023-02-15T03:32:57;11.15;;;5.53;;
77984;SDS011;67177;47.240;-1.546;2023-02-15T03:35:26;9.73;;;5.38;;
77984;SDS011;67177;47.240;-1.546;2023-02-15T03:37:59;11.87;;;6.10;;
77984;SDS011;67177;47.240;-1.546;2023-02-15T03:40:30;10.85;;;5.43;;
77984;SDS011;67177;47.240;-1.546;2023-02-15T03:46:22;9.18;;;4.85;;
77984;SDS011;67177;47.240;-1.546;2023-02-15T03:51:50;10.73;;;5.47;;
77984;SDS011;67177;47.240;-1.546;2023-02-15T03:54:25;9.88;;;4.97;;
77984;SDS011;67177;47.240;-1.546;2023-02-15T04:00:15;10.13;;;5.47;;
77984;SDS011;67177;47.240;-1.546;2023-02-15T04:05:40;9.90;;;5.27;;
77984;SDS011;67177;47.240;-1.546;2023-02-15T04:08:09;10.40;;;5.18;;
77984;SDS011;67177;47.240;-1.546;2023-02-15T04:10:36;9.93;;;5.13;;
77984;SDS011;67177;47.240;-1.546;2023-02-15T04:13:17;10.25;;;5.75;;
77984;SDS011;67177;47.240;-1.546;2023-02-15T04:15:43;11.07;;;5.53;;
77984;SDS011;67177;47.240;-1.546;2023-02-15T04:18:27;11.17;;;5.50;;
77984;SDS011;67177;47.240;-1.546;2023-02-15T04:21:12;10.10;;;5.25;;
77984;SDS011;67177;47.240;-1.546;2023-02-15T04:23:57;11.70;;;6.50;;
77984;SDS011;67177;47.240;-1.546;2023-02-15T04:26:41;12.43;;;7.43;;
77984;SDS011;67177;47.240;-1.546;2023-02-15T04:29:06;12.10;;;6.93;;
77984;SDS011;67177;47.240;-1.546;2023-02-15T04:31:32;12.27;;;6.28;;
77984;SDS011;67177;47.240;-1.546;2023-02-15T04:33:57;11.90;;;6.13;;
77984;SDS011;67177;47.240;-1.546;2023-02-15T04:36:23;11.60;;;6.07;;
77984;SDS011;67177;47.240;-1.546;2023-02-15T04:38:49;12.07;;;6.18;;
77984;SDS011;67177;47.240;-1.546;2023-02-15T04:41:14;13.43;;;7.60;;
77984;SDS011;67177;47.240;-1.546;2023-02-15T04:43:40;11.77;;;6.63;;
77984;SDS011;67177;47.240;-1.546;2023-02-15T04:46:05;12.93;;;6.30;;
77984;SDS011;67177;47.240;-1.546;2023-02-15T04:48:31;10.87;;;5.93;;
77984;SDS011;67177;47.240;-1.546;2023-02-15T04:50:57;11.40;;;6.05;;
77984;SDS011;67177;47.240;-1.546;2023-02-15T04:53:22;11.53;;;5.37;;
77984;SDS011;67177;47.240;-1.546;2023-02-15T04:55:48;10.33;;;5.33;;
77984;SDS011;67177;47.240;-1.546;2023-02-15T04:58:14;9.73;;;5.07;;
77984;SDS011;67177;47.240;-1.546;2023-02-15T05:00:39;10.93;;;5.60;;
77984;SDS011;67177;47.240;-1.546;2023-02-15T05:03:05;10.70;;;5.60;;
77984;SDS011;67177;47.240;-1.546;2023-02-15T05:05:30;9.77;;;5.03;;
77984;SDS011;67177;47.240;-1.546;2023-02-15T05:07:56;10.83;;;5.60;;
77984;SDS011;67177;47.240;-1.546;2023-02-15T05:10:22;13.02;;;6.78;;
77984;SDS011;67177;47.240;-1.546;2023-02-15T05:12:47;12.20;;;6.63;;
77984;SDS011;67177;47.240;-1.546;2023-02-15T05:15:13;12.75;;;6.72;;
77984;SDS011;67177;47.240;-1.546;2023-02-15T05:17:39;14.33;;;7.60;;
77984;SDS011;67177;47.240;-1.546;2023-02-15T05:20:05;12.85;;;6.75;;
77984;SDS011;67177;47.240;-1.546;2023-02-15T05:22:31;14.00;;;6.33;;
77984;SDS011;67177;47.240;-1.546;2023-02-15T05:24:57;11.40;;;5.90;;
77984;SDS011;67177;47.240;-1.546;2023-02-15T05:27:41;10.57;;;5.50;;
77984;SDS011;67177;47.240;-1.546;2023-02-15T05:30:25;8.97;;;5.23;;
77984;SDS011;67177;47.240;-1.546;2023-02-15T05:32:51;9.70;;;4.78;;
77984;SDS011;67177;47.240;-1.546;2023-02-15T05:35:18;9.87;;;5.40;;
77984;SDS011;67177;47.240;-1.546;2023-02-15T05:37:43;9.82;;;4.47;;
77984;SDS011;67177;47.240;-1.546;2023-02-15T05:40:09;9.80;;;4.85;;
77984;SDS011;67177;47.240;-1.546;2023-02-15T05:42:35;8.60;;;4.47;;
77984;SDS011;67177;47.240;-1.546;2023-02-15T05:45:01;9.30;;;4.78;;
77984;SDS011;67177;47.240;-1.546;2023-02-15T05:47:28;8.60;;;4.20;;
77984;SDS011;67177;47.240;-1.546;2023-02-15T05:49:54;8.23;;;4.00;;
77984;SDS011;67177;47.240;-1.546;2023-02-15T05:52:20;9.05;;;4.40;;
77984;SDS011;67177;47.240;-1.546;2023-02-15T05:54:46;8.33;;;3.97;;
77984;SDS011;67177;47.240;-1.546;2023-02-15T05:57:12;8.25;;;3.72;;
77984;SDS011;67177;47.240;-1.546;2023-02-15T05:59:37;7.57;;;3.97;;
77984;SDS011;67177;47.240;-1.546;2023-02-15T06:02:03;7.90;;;3.83;;
77984;SDS011;67177;47.240;-1.546;2023-02-15T06:04:29;7.20;;;3.50;;
77984;SDS011;67177;47.240;-1.546;2023-02-15T06:06:54;7.23;;;3.50;;
77984;SDS011;67177;47.240;-1.546;2023-02-15T06:09:20;7.10;;;3.20;;
77984;SDS011;67177;47.240;-1.546;2023-02-15T06:11:45;7.77;;;3.43;;
77984;SDS011;67177;47.240;-1.546;2023-02-15T06:14:11;7.40;;;3.50;;
77984;SDS011;67177;47.240;-1.546;2023-02-15T06:16:37;6.50;;;3.13;;
77984;SDS011;67177;47.240;-1.546;2023-02-15T06:19:03;7.27;;;3.50;;
77984;SDS011;67177;47.240;-1.546;2023-02-15T06:21:29;7.30;;;3.30;;
77984;SDS011;67177;47.240;-1.546;2023-02-15T06:23:55;7.50;;;3.15;;
77984;SDS011;67177;47.240;-1.546;2023-02-15T06:26:21;7.33;;;3.30;;
77984;SDS011;67177;47.240;-1.546;2023-02-15T06:28:47;7.18;;;3.55;;
77984;SDS011;67177;47.240;-1.546;2023-02-15T06:31:12;7.13;;;3.40;;
77984;SDS011;67177;47.240;-1.546;2023-02-15T06:33:38;6.70;;;3.22;;
77984;SDS011;67177;47.240;-1.546;2023-02-15T06:36:04;8.13;;;3.57;;
77984;SDS011;67177;47.240;-1.546;2023-02-15T06:38:30;6.75;;;2.92;;
77984;SDS011;67177;47.240;-1.546;2023-02-15T06:40:55;6.33;;;2.77;;
77984;SDS011;67177;47.240;-1.546;2023-02-15T06:43:21;7.18;;;3.10;;
77984;SDS011;67177;47.240;-1.546;2023-02-15T06:45:47;6.63;;;3.10;;
77984;SDS011;67177;47.240;-1.546;2023-02-15T06:48:12;7.97;;;3.05;;
77984;SDS011;67177;47.240;-1.546;2023-02-15T06:50:39;6.90;;;2.85;;
77984;SDS011;67177;47.240;-1.546;2023-02-15T06:53:05;6.95;;;3.15;;
77984;SDS011;67177;47.240;-1.546;2023-02-15T06:55:30;7.40;;;3.23;;
77984;SDS011;67177;47.240;-1.546;2023-02-15T06:57:56;6.90;;;3.03;;
77984;SDS011;67177;47.240;-1.546;2023-02-15T07:00:21;6.93;;;3.20;;
77984;SDS011;67177;47.240;-1.546;2023-02-15T07:02:51;6.35;;;2.80;;
77984;SDS011;67177;47.240;-1.546;2023-02-15T07:05:24;6.90;;;3.30;;
77984;SDS011;67177;47.240;-1.546;2023-02-15T07:07:55;6.77;;;3.07;;
77984;SDS011;67177;47.240;-1.546;2023-02-15T07:10:22;6.65;;;2.80;;
77984;SDS011;67177;47.240;-1.546;2023-02-15T07:12:47;6.97;;;3.13;;
77984;SDS011;67177;47.240;-1.546;2023-02-15T07:15:14;6.67;;;2.70;;
77984;SDS011;67177;47.240;-1.546;2023-02-15T07:17:41;6.60;;;2.97;;
77984;SDS011;67177;47.240;-1.546;2023-02-15T07:20:18;7.20;;;3.15;;
77984;SDS011;67177;47.240;-1.546;2023-02-15T07:22:45;6.77;;;2.97;;
77984;SDS011;67177;47.240;-1.546;2023-02-15T07:25:11;6.80;;;3.50;;
77984;SDS011;67177;47.240;-1.546;2023-02-15T07:27:37;7.30;;;3.30;;
77984;SDS011;67177;47.240;-1.546;2023-02-15T07:30:04;6.73;;;3.00;;
77984;SDS011;67177;47.240;-1.546;2023-02-15T07:32:31;7.05;;;3.25;;
77984;SDS011;67177;47.240;-1.546;2023-02-15T07:34:57;8.00;;;3.60;;
77984;SDS011;67177;47.240;-1.546;2023-02-15T07:37:24;6.82;;;2.92;;
77984;SDS011;67177;47.240;-1.546;2023-02-15T07:39:49;8.23;;;3.60;;
77984;SDS011;67177;47.240;-1.546;2023-02-15T07:42:15;8.27;;;3.43;;
77984;SDS011;67177;47.240;-1.546;2023-02-15T07:44:42;6.05;;;2.80;;
77984;SDS011;67177;47.240;-1.546;2023-02-15T07:47:08;6.68;;;3.30;;
77984;SDS011;67177;47.240;-1.546;2023-02-15T07:49:34;7.03;;;3.40;;
77984;SDS011;67177;47.240;-1.546;2023-02-15T07:52:00;6.43;;;3.30;;
77984;SDS011;67177;47.240;-1.546;2023-02-15T07:54:26;7.15;;;3.30;;
77984;SDS011;67177;47.240;-1.546;2023-02-15T07:56:52;7.22;;;3.50;;
77984;SDS011;67177;47.240;-1.546;2023-02-15T07:59:18;7.13;;;3.40;;
77984;SDS011;67177;47.240;-1.546;2023-02-15T08:01:43;7.10;;;3.80;;
77984;SDS011;67177;47.240;-1.546;2023-02-15T08:04:09;6.90;;;3.20;;
77984;SDS011;67177;47.240;-1.546;2023-02-15T08:06:36;6.15;;;3.13;;
77984;SDS011;67177;47.240;-1.546;2023-02-15T08:09:03;7.38;;;3.40;;
77984;SDS011;67177;47.240;-1.546;2023-02-15T08:11:33;7.10;;;3.10;;
77984;SDS011;67177;47.240;-1.546;2023-02-15T08:14:13;7.10;;;3.13;;
77984;SDS011;67177;47.240;-1.546;2023-02-15T08:16:47;6.55;;;2.85;;
77984;SDS011;67177;47.240;-1.546;2023-02-15T08:21:45;7.50;;;3.15;;
77984;SDS011;67177;47.240;-1.546;2023-02-15T08:24:16;6.47;;;3.30;;
77984;SDS011;67177;47.240;-1.546;2023-02-15T08:26:43;5.97;;;2.70;;
77984;SDS011;67177;47.240;-1.546;2023-02-15T08:29:16;6.60;;;2.70;;
77984;SDS011;67177;47.240;-1.546;2023-02-15T08:31:43;6.22;;;2.70;;
77984;SDS011;67177;47.240;-1.546;2023-02-15T08:34:10;6.68;;;2.90;;
77984;SDS011;67177;47.240;-1.546;2023-02-15T08:36:38;6.50;;;3.30;;
77984;SDS011;67177;47.240;-1.546;2023-02-15T08:39:04;6.88;;;3.13;;
77984;SDS011;67177;47.240;-1.546;2023-02-15T08:41:31;7.45;;;3.30;;
77984;SDS011;67177;47.240;-1.546;2023-02-15T08:44:00;7.07;;;3.03;;
77984;SDS011;67177;47.240;-1.546;2023-02-15T08:46:29;6.82;;;3.20;;
77984;SDS011;67177;47.240;-1.546;2023-02-15T08:48:56;6.82;;;3.30;;
77984;SDS011;67177;47.240;-1.546;2023-02-15T08:51:26;6.53;;;3.00;;
77984;SDS011;67177;47.240;-1.546;2023-02-15T08:53:57;6.88;;;3.05;;
77984;SDS011;67177;47.240;-1.546;2023-02-15T08:56:27;6.33;;;3.03;;
77984;SDS011;67177;47.240;-1.546;2023-02-15T08:58:55;7.10;;;3.17;;
77984;SDS011;67177;47.240;-1.546;2023-02-15T09:01:22;6.53;;;3.00;;
77984;SDS011;67177;47.240;-1.546;2023-02-15T09:03:54;6.03;;;2.70;;
77984;SDS011;67177;47.240;-1.546;2023-02-15T09:06:22;6.85;;;3.13;;
77984;SDS011;67177;47.240;-1.546;2023-02-15T09:08:48;6.70;;;2.97;;
77984;SDS011;67177;47.240;-1.546;2023-02-15T09:11:19;6.47;;;2.88;;
77984;SDS011;67177;47.240;-1.546;2023-02-15T09:13:51;6.45;;;2.92;;
77984;SDS011;67177;47.240;-1.546;2023-02-15T09:16:19;6.70;;;3.15;;
77984;SDS011;67177;47.240;-1.546;2023-02-15T09:18:46;7.38;;;3.45;;
77984;SDS011;67177;47.240;-1.546;2023-02-15T09:21:16;6.80;;;3.47;;
77984;SDS011;67177;47.240;-1.546;2023-02-15T09:23:44;7.53;;;3.50;;
77984;SDS011;67177;47.240;-1.546;2023-02-15T09:26:15;7.95;;;3.80;;
77984;SDS011;67177;47.240;-1.546;2023-02-15T09:28:43;8.93;;;4.50;;
77984;SDS011;67177;47.240;-1.546;2023-02-15T09:33:36;7.87;;;4.00;;
77984;SDS011;67177;47.240;-1.546;2023-02-15T09:36:03;7.25;;;3.42;;
77984;SDS011;67177;47.240;-1.546;2023-02-15T09:38:30;7.40;;;3.50;;
77984;SDS011;67177;47.240;-1.546;2023-02-15T09:41:02;10.48;;;5.18;;
77984;SDS011;67177;47.240;-1.546;2023-02-15T09:43:38;10.05;;;4.50;;
77984;SDS011;67177;47.240;-1.546;2023-02-15T09:47:10;8.57;;;3.80;;
77984;SDS011;67177;47.240;-1.546;2023-02-15T09:55:08;7.47;;;4.03;;
77984;SDS011;67177;47.240;-1.546;2023-02-15T10:06:18;7.90;;;4.13;;
77984;SDS011;67177;47.240;-1.546;2023-02-15T10:11:38;8.05;;;4.40;;
77984;SDS011;67177;47.240;-1.546;2023-02-15T10:27:37;8.07;;;4.00;;
77984;SDS011;67177;47.240;-1.546;2023-02-15T10:30:14;7.63;;;3.58;;
77984;SDS011;67177;47.240;-1.546;2023-02-15T10:35:26;7.22;;;3.65;;
77984;SDS011;67177;47.240;-1.546;2023-02-15T10:38:21;7.63;;;4.20;;
77984;SDS011;67177;47.240;-1.546;2023-02-15T10:57:51;9.45;;;4.95;;
77984;SDS011;67177;47.240;-1.546;2023-02-15T11:00:25;9.52;;;5.40;;
77984;SDS011;67177;47.240;-1.546;2023-02-15T11:06:09;7.60;;;4.15;;
77984;SDS011;67177;47.240;-1.546;2023-02-15T11:08:45;9.37;;;4.90;;
77984;SDS011;67177;47.240;-1.546;2023-02-15T11:11:28;10.15;;;6.20;;
77984;SDS011;67177;47.240;-1.546;2023-02-15T11:13:58;8.95;;;5.00;;
77984;SDS011;67177;47.240;-1.546;2023-02-15T11:16:37;8.10;;;4.70;;
77984;SDS011;67177;47.240;-1.546;2023-02-15T11:22:09;10.83;;;6.23;;
77984;SDS011;67177;47.240;-1.546;2023-02-15T11:24:39;10.35;;;6.32;;
77984;SDS011;67177;47.240;-1.546;2023-02-15T11:29:47;10.48;;;5.60;;
77984;SDS011;67177;47.240;-1.546;2023-02-15T11:32:39;11.73;;;5.53;;
77984;SDS011;67177;47.240;-1.546;2023-02-15T11:40:32;10.38;;;5.60;;
77984;SDS011;67177;47.240;-1.546;2023-02-15T11:43:10;10.32;;;5.72;;
77984;SDS011;67177;47.240;-1.546;2023-02-15T11:45:49;10.43;;;5.82;;
77984;SDS011;67177;47.240;-1.546;2023-02-15T11:48:15;10.97;;;5.30;;
77984;SDS011;67177;47.240;-1.546;2023-02-15T11:50:42;10.77;;;5.60;;
77984;SDS011;67177;47.240;-1.546;2023-02-15T11:53:11;11.02;;;6.68;;
77984;SDS011;67177;47.240;-1.546;2023-02-15T11:55:39;12.27;;;6.53;;
77984;SDS011;67177;47.240;-1.546;2023-02-15T12:00:58;11.93;;;6.22;;
77984;SDS011;67177;47.240;-1.546;2023-02-15T12:03:44;9.18;;;5.30;;
77984;SDS011;67177;47.240;-1.546;2023-02-15T12:08:58;8.70;;;4.90;;
77984;SDS011;67177;47.240;-1.546;2023-02-15T12:11:46;10.63;;;5.63;;
77984;SDS011;67177;47.240;-1.546;2023-02-15T12:14:12;11.75;;;6.05;;
77984;SDS011;67177;47.240;-1.546;2023-02-15T12:16:45;9.60;;;5.70;;
77984;SDS011;67177;47.240;-1.546;2023-02-15T12:19:13;9.10;;;5.25;;
77984;SDS011;67177;47.240;-1.546;2023-02-15T12:21:49;10.88;;;5.28;;
77984;SDS011;67177;47.240;-1.546;2023-02-15T12:24:24;9.68;;;5.22;;
77984;SDS011;67177;47.240;-1.546;2023-02-15T12:29:35;9.63;;;5.33;;
77984;SDS011;67177;47.240;-1.546;2023-02-15T12:32:06;9.38;;;5.47;;
77984;SDS011;67177;47.240;-1.546;2023-02-15T12:37:34;11.18;;;6.55;;
77984;SDS011;67177;47.240;-1.546;2023-02-15T12:40:02;9.18;;;5.35;;
77984;SDS011;67177;47.240;-1.546;2023-02-15T12:42:47;8.47;;;4.47;;
77984;SDS011;67177;47.240;-1.546;2023-02-15T12:45:20;7.45;;;4.03;;
77984;SDS011;67177;47.240;-1.546;2023-02-15T12:48:07;8.23;;;4.30;;
77984;SDS011;67177;47.240;-1.546;2023-02-15T12:50:33;7.68;;;4.43;;
77984;SDS011;67177;47.240;-1.546;2023-02-15T12:53:33;7.53;;;4.17;;
77984;SDS011;67177;47.240;-1.546;2023-02-15T12:56:02;9.10;;;5.13;;
77984;SDS011;67177;47.240;-1.546;2023-02-15T12:58:33;7.18;;;3.70;;
77984;SDS011;67177;47.240;-1.546;2023-02-15T13:01:04;9.13;;;5.05;;
77984;SDS011;67177;47.240;-1.546;2023-02-15T13:03:34;8.95;;;4.80;;
77984;SDS011;67177;47.240;-1.546;2023-02-15T13:06:02;8.83;;;5.13;;
77984;SDS011;67177;47.240;-1.546;2023-02-15T13:08:34;10.68;;;5.35;;
77984;SDS011;67177;47.240;-1.546;2023-02-15T13:11:15;10.32;;;5.47;;
77984;SDS011;67177;47.240;-1.546;2023-02-15T13:16:28;8.30;;;4.45;;
77984;SDS011;67177;47.240;-1.546;2023-02-15T13:19:09;8.63;;;4.73;;
77984;SDS011;67177;47.240;-1.546;2023-02-15T13:21:44;9.98;;;4.63;;
77984;SDS011;67177;47.240;-1.546;2023-02-15T13:26:41;7.65;;;4.00;;
77984;SDS011;67177;47.240;-1.546;2023-02-15T13:29:12;10.02;;;4.35;;
77984;SDS011;67177;47.240;-1.546;2023-02-15T13:31:49;9.67;;;5.27;;
77984;SDS011;67177;47.240;-1.546;2023-02-15T13:34:21;10.07;;;5.95;;
77984;SDS011;67177;47.240;-1.546;2023-02-15T13:47:44;7.40;;;4.00;;
77984;SDS011;67177;47.240;-1.546;2023-02-15T13:55:36;7.47;;;3.90;;
77984;SDS011;67177;47.240;-1.546;2023-02-15T14:15:03;12.40;;;7.32;;
77984;SDS011;67177;47.240;-1.546;2023-02-15T14:20:25;11.00;;;6.18;;
77984;SDS011;67177;47.240;-1.546;2023-02-15T14:23:03;11.05;;;5.60;;
77984;SDS011;67177;47.240;-1.546;2023-02-15T14:26:03;8.75;;;5.18;;
77984;SDS011;67177;47.240;-1.546;2023-02-15T14:29:19;7.63;;;4.43;;
77984;SDS011;67177;47.240;-1.546;2023-02-15T14:31:54;7.27;;;4.23;;
77984;SDS011;67177;47.240;-1.546;2023-02-15T14:34:44;8.80;;;4.80;;
77984;SDS011;67177;47.240;-1.546;2023-02-15T14:37:16;8.70;;;4.50;;
77984;SDS011;67177;47.240;-1.546;2023-02-15T14:40:16;7.18;;;3.78;;
77984;SDS011;67177;47.240;-1.546;2023-02-15T14:46:20;7.97;;;4.30;;
77984;SDS011;67177;47.240;-1.546;2023-02-15T14:48:50;7.95;;;3.72;;
77984;SDS011;67177;47.240;-1.546;2023-02-15T14:59:50;7.72;;;4.53;;
77984;SDS011;67177;47.240;-1.546;2023-02-15T15:05:16;13.38;;;6.82;;
77984;SDS011;67177;47.240;-1.546;2023-02-15T15:07:46;9.73;;;5.30;;
77984;SDS011;67177;47.240;-1.546;2023-02-15T15:12:42;11.60;;;6.63;;
77984;SDS011;67177;47.240;-1.546;2023-02-15T15:15:32;13.25;;;6.45;;
77984;SDS011;67177;47.240;-1.546;2023-02-15T15:18:42;9.50;;;5.70;;
77984;SDS011;67177;47.240;-1.546;2023-02-15T15:38:50;7.78;;;3.72;;
77984;SDS011;67177;47.240;-1.546;2023-02-15T15:44:19;7.15;;;3.65;;
77984;SDS011;67177;47.240;-1.546;2023-02-15T15:49:34;10.03;;;4.93;;
77984;SDS011;67177;47.240;-1.546;2023-02-15T15:52:02;8.07;;;4.30;;
77984;SDS011;67177;47.240;-1.546;2023-02-15T15:54:38;8.35;;;4.63;;
77984;SDS011;67177;47.240;-1.546;2023-02-15T15:57:06;8.60;;;5.22;;
77984;SDS011;67177;47.240;-1.546;2023-02-15T15:59:44;8.55;;;4.57;;
77984;SDS011;67177;47.240;-1.546;2023-02-15T16:02:13;7.77;;;4.23;;
77984;SDS011;67177;47.240;-1.546;2023-02-15T16:04:44;7.72;;;3.97;;
77984;SDS011;67177;47.240;-1.546;2023-02-15T16:10:02;7.28;;;3.17;;
77984;SDS011;67177;47.240;-1.546;2023-02-15T16:12:30;7.95;;;4.03;;
77984;SDS011;67177;47.240;-1.546;2023-02-15T16:15:00;7.27;;;3.93;;
77984;SDS011;67177;47.240;-1.546;2023-02-15T16:17:30;8.60;;;4.65;;
77984;SDS011;67177;47.240;-1.546;2023-02-15T16:20:00;8.07;;;4.18;;
77984;SDS011;67177;47.240;-1.546;2023-02-15T16:22:32;7.95;;;3.80;;
77984;SDS011;67177;47.240;-1.546;2023-02-15T16:27:43;6.27;;;2.97;;
77984;SDS011;67177;47.240;-1.546;2023-02-15T16:30:32;6.30;;;3.17;;
77984;SDS011;67177;47.240;-1.546;2023-02-15T16:33:08;6.10;;;2.85;;
77984;SDS011;67177;47.240;-1.546;2023-02-15T16:35:34;6.55;;;3.20;;
77984;SDS011;67177;47.240;-1.546;2023-02-15T16:38:04;6.05;;;3.20;;
77984;SDS011;67177;47.240;-1.546;2023-02-15T16:40:46;6.50;;;2.80;;
77984;SDS011;67177;47.240;-1.546;2023-02-15T16:43:18;5.45;;;2.40;;
77984;SDS011;67177;47.240;-1.546;2023-02-15T16:45:51;6.75;;;3.28;;
77984;SDS011;67177;47.240;-1.546;2023-02-15T16:48:23;8.00;;;3.60;;
77984;SDS011;67177;47.240;-1.546;2023-02-15T16:50:51;8.20;;;3.63;;
77984;SDS011;67177;47.240;-1.546;2023-02-15T16:53:21;7.60;;;3.20;;
77984;SDS011;67177;47.240;-1.546;2023-02-15T16:55:54;5.82;;;2.80;;
77984;SDS011;67177;47.240;-1.546;2023-02-15T16:58:45;5.90;;;2.72;;
77984;SDS011;67177;47.240;-1.546;2023-02-15T17:01:15;5.88;;;2.47;;
77984;SDS011;67177;47.240;-1.546;2023-02-15T17:03:45;4.90;;;2.00;;
77984;SDS011;67177;47.240;-1.546;2023-02-15T17:06:26;5.27;;;2.10;;
77984;SDS011;67177;47.240;-1.546;2023-02-15T17:09:02;4.85;;;2.05;;
77984;SDS011;67177;47.240;-1.546;2023-02-15T17:11:35;4.93;;;2.10;;
77984;SDS011;67177;47.240;-1.546;2023-02-15T17:16:32;6.32;;;2.67;;
77984;SDS011;67177;47.240;-1.546;2023-02-15T17:19:13;4.97;;;2.20;;
77984;SDS011;67177;47.240;-1.546;2023-02-15T17:21:47;4.78;;;1.95;;
77984;SDS011;67177;47.240;-1.546;2023-02-15T17:24:18;5.10;;;2.08;;
77984;SDS011;67177;47.240;-1.546;2023-02-15T17:26:50;4.50;;;1.73;;
77984;SDS011;67177;47.240;-1.546;2023-02-15T17:29:37;4.85;;;1.70;;
77984;SDS011;67177;47.240;-1.546;2023-02-15T17:32:12;4.20;;;1.70;;
77984;SDS011;67177;47.240;-1.546;2023-02-15T17:37:59;4.38;;;1.50;;
77984;SDS011;67177;47.240;-1.546;2023-02-15T17:40:26;4.30;;;1.67;;
77984;SDS011;67177;47.240;-1.546;2023-02-15T17:42:59;4.32;;;1.60;;
77984;SDS011;67177;47.240;-1.546;2023-02-15T17:45:27;4.47;;;1.60;;
77984;SDS011;67177;47.240;-1.546;2023-02-15T17:48:15;4.00;;;1.60;;
77984;SDS011;67177;47.240;-1.546;2023-02-15T17:50:46;4.30;;;1.50;;
77984;SDS011;67177;47.240;-1.546;2023-02-15T17:53:12;4.67;;;1.83;;
77984;SDS011;67177;47.240;-1.546;2023-02-15T17:55:41;4.88;;;2.00;;
77984;SDS011;67177;47.240;-1.546;2023-02-15T18:00:39;5.57;;;2.33;;
77984;SDS011;67177;47.240;-1.546;2023-02-15T18:03:48;6.40;;;2.60;;
77984;SDS011;67177;47.240;-1.546;2023-02-15T18:06:34;6.22;;;2.65;;
77984;SDS011;67177;47.240;-1.546;2023-02-15T18:09:20;6.70;;;2.78;;
77984;SDS011;67177;47.240;-1.546;2023-02-15T18:12:19;7.33;;;3.20;;
77984;SDS011;67177;47.240;-1.546;2023-02-15T18:14:53;6.95;;;3.10;;
77984;SDS011;67177;47.240;-1.546;2023-02-15T18:17:21;7.53;;;3.15;;
77984;SDS011;67177;47.240;-1.546;2023-02-15T18:19:52;6.78;;;3.30;;
77984;SDS011;67177;47.240;-1.546;2023-02-15T18:22:18;6.65;;;2.83;;
77984;SDS011;67177;47.240;-1.546;2023-02-15T18:24:45;6.80;;;3.03;;